Airfield :
LOGIN :

Register | Disclaimer

   EN    FR    IT 

 










Legend :    VFR   Marginal VFR   IFR   Intensive IFR   Very Intensive IFR
Visi :
Ceiling :
>= 8 km
>= 3000ft
5 to 8 km
1000 to 3000 ft
1500m to 5 km
500 to 1000 ft
800 to 1500m
200 to 500 ft
< 800m
< 200 ft
Symbols :   Thunderstorms  Fog  Heavy snow  Heavy precipitations  Wind > 20 kt
SIGMETs :     Misc.  Thunderstorms  Icing  Turbulence  Mountain Waves  Volcanic Ashes







- Airport Elevation : 5600 ft
- IATA code : SMV


LSZS - Samedan

CURRENT METAR :
  • 111420Z VRB03KT CAVOK M06/M14 Q1016 RMK Q

EXPIRED METARs :
  • 111350Z VRB03KT CAVOK M05/M16 Q1016 RMK P
  • 111320Z 01005KT 300V040 CAVOK M05/M15 Q1016 RMK O
  • 111250Z 04005KT 9999 FEW047 M05/M15 Q1016 R03/19//// RMK N
  • 111220Z 04005KT 010V090 9999 FEW047 M05/M15 Q1016 R03/19//// RMK M
  • 111150Z 03004KT 330V080 9999 FEW047 M05/M15 Q1017 R03/19//// RMK L

TAF TAF LSZS
Valid from the 11 at 15:00 until the 12 at 00:00 UTC


111425Z 1115/1124 02005KT 9999 FEW045 TXM05/1115Z
TEMPO 1115/1120 CAVOK
ATIS : +41 81 834 93 24
No reported NOTAMs for that airfield.



MET'MAP, your aeronautical weather chart ! - Copyright ORBIFLY December 2007 - Disclaimer

ORBIFLY MET'MAP TEAM :

Programming & Development : Alexandra Zaïnal
Concept & Development : Baudouin d'Aumeries
Co-Development & Prog : Marc-Olivier Méhu
Technical & hardware support : Manuel Goepfert

Contact : metmap@orbifly.com




SOURCES & CREDITS :

   NOAA